Time;durP1;ratioP1;P1;durP2;ratioP2;P2;SDS_P1;SDS_P2;PMS_P1;PMS_P2;Temp;Humidity;BMP_temperature;BMP_pressure;BME280_temperature;BME280_humidity;BME280_pressure;Samples;Min_cycle;Max_cycle;Signal;HPM_P1;HPM_P2
2023/10/21 04:01:03;;;;;;;13.20;8.73;;;7.70;99.90;;;;;;5643992;23;20237;-70
2023/10/21 04:03:29;;;;;;;14.55;8.63;;;7.70;99.90;;;;;;4934693;29;20233;-71
2023/10/21 04:05:57;;;;;;;13.85;7.30;;;7.70;99.90;;;;;;4934534;29;20218;-71
2023/10/21 04:08:25;;;;;;;16.15;9.20;;;7.70;99.90;;;;;;4934354;29;20672;-71
2023/10/21 04:10:52;;;;;;;14.88;9.65;;;7.70;99.90;;;;;;4948633;29;20241;-71
2023/10/21 04:13:19;;;;;;;17.50;8.30;;;7.80;99.90;;;;;;4952608;28;20211;-71
2023/10/21 04:15:46;;;;;;;14.65;9.27;;;7.80;99.90;;;;;;4969919;23;20284;-70
2023/10/21 04:18:14;;;;;;;12.05;7.65;;;7.80;99.90;;;;;;4961807;28;20221;-71
2023/10/21 04:20:41;;;;;;;9.63;7.60;;;7.80;99.90;;;;;;4964569;28;20242;-70
2023/10/21 04:23:07;;;;;;;10.73;6.95;;;7.80;99.90;;;;;;4964486;28;20717;-70
2023/10/21 04:25:34;;;;;;;15.00;8.07;;;7.80;99.90;;;;;;4953460;28;20229;-71
2023/10/21 04:28:01;;;;;;;13.90;6.80;;;7.80;99.90;;;;;;4954715;28;20213;-71
2023/10/21 04:30:28;;;;;;;8.27;6.10;;;7.80;99.90;;;;;;4954877;28;20264;-71
2023/10/21 04:32:55;;;;;;;8.63;5.80;;;7.80;99.90;;;;;;4954748;28;20210;-71
2023/10/21 04:35:23;;;;;;;8.50;5.55;;;7.80;99.90;;;;;;4953378;28;20219;-71
2023/10/21 04:37:49;;;;;;;14.70;7.50;;;7.80;99.90;;;;;;4953494;28;20224;-71
2023/10/21 04:40:16;;;;;;;10.43;6.83;;;7.80;99.90;;;;;;4953318;28;20209;-71
2023/10/21 04:42:43;;;;;;;10.52;7.15;;;7.90;99.90;;;;;;4953274;28;20313;-71
2023/10/21 04:45:11;;;;;;;17.13;9.15;;;7.90;99.90;;;;;;4954380;28;20572;-71
2023/10/21 04:47:38;;;;;;;14.27;8.80;;;7.90;99.90;;;;;;4957005;28;20216;-71
2023/10/21 04:50:06;;;;;;;7.57;6.28;;;7.90;99.90;;;;;;4956861;28;20224;-71
2023/10/21 04:52:34;;;;;;;14.63;9.27;;;7.90;99.90;;;;;;4956776;28;20228;-70
2023/10/21 04:55:01;;;;;;;14.32;8.52;;;7.90;99.90;;;;;;4956758;28;20268;-72
2023/10/21 04:57:27;;;;;;;13.93;7.60;;;7.90;99.90;;;;;;4956488;28;20233;-71
2023/10/21 04:59:54;;;;;;;11.60;7.22;;;7.90;99.90;;;;;;4956518;28;20217;-71
2023/10/21 05:02:21;;;;;;;14.45;7.85;;;7.90;99.90;;;;;;4956508;28;20236;-71
2023/10/21 05:04:50;;;;;;;13.88;9.05;;;7.90;99.90;;;;;;4956381;28;20676;-70
2023/10/21 05:07:16;;;;;;;14.00;8.27;;;7.90;99.90;;;;;;4956603;28;20237;-71
2023/10/21 05:09:44;;;;;;;14.38;6.90;;;7.90;99.90;;;;;;4956838;28;20481;-70
2023/10/21 05:12:11;;;;;;;14.23;8.02;;;8.00;99.90;;;;;;4956690;28;20216;-71
2023/10/21 05:14:38;;;;;;;15.00;6.90;;;7.90;99.90;;;;;;4956222;28;20218;-71
2023/10/21 05:17:05;;;;;;;12.70;6.30;;;8.00;99.90;;;;;;4955981;28;20270;-71
2023/10/21 05:19:32;;;;;;;12.68;8.85;;;8.00;99.90;;;;;;4956426;28;20228;-70
2023/10/21 05:21:59;;;;;;;15.40;8.50;;;8.00;99.90;;;;;;4956142;29;20208;-70
2023/10/21 05:24:25;;;;;;;14.98;8.18;;;8.00;99.90;;;;;;4956161;28;20213;-70
2023/10/21 05:26:53;;;;;;;13.25;7.72;;;8.00;99.90;;;;;;4956006;28;20244;-70
2023/10/21 05:29:20;;;;;;;15.35;7.05;;;8.00;99.90;;;;;;4956211;28;20216;-71
2023/10/21 05:31:47;;;;;;;17.00;8.93;;;8.00;99.90;;;;;;4955829;28;20209;-70
2023/10/21 05:34:17;;;;;;;13.18;8.57;;;8.00;99.90;;;;;;4956170;28;20228;-71
2023/10/21 05:36:44;;;;;;;14.95;8.50;;;8.00;99.90;;;;;;4955776;28;20233;-71
2023/10/21 05:39:12;;;;;;;13.80;9.05;;;8.00;99.90;;;;;;4956068;28;20217;-71
2023/10/21 05:41:39;;;;;;;14.20;8.82;;;8.00;99.90;;;;;;4956492;28;20224;-71
2023/10/21 05:44:08;;;;;;;13.90;7.20;;;8.10;99.90;;;;;;4955975;28;20774;-71
2023/10/21 05:46:35;;;;;;;11.73;8.00;;;8.10;99.90;;;;;;4955446;28;20232;-70
2023/10/21 05:49:02;;;;;;;14.32;7.40;;;8.00;99.90;;;;;;4955815;28;20213;-71
2023/10/21 05:51:29;;;;;;;11.95;7.78;;;8.10;99.90;;;;;;4955734;28;20313;-70
2023/10/21 05:53:56;;;;;;;10.30;6.97;;;8.10;99.90;;;;;;4955456;28;20233;-71
2023/10/21 05:56:23;;;;;;;9.70;7.05;;;8.00;99.90;;;;;;4953992;28;20233;-70
2023/10/21 05:58:50;;;;;;;13.05;8.00;;;8.10;99.90;;;;;;4955452;28;20213;-70
2023/10/21 06:01:18;;;;;;;13.07;7.07;;;8.10;99.90;;;;;;4955471;28;20214;-71
2023/10/21 06:03:45;;;;;;;16.38;9.65;;;8.10;99.90;;;;;;4955354;28;20576;-71
2023/10/21 06:06:12;;;;;;;15.68;9.68;;;8.10;99.90;;;;;;4954924;28;20237;-70
2023/10/21 06:08:39;;;;;;;15.85;9.48;;;8.10;99.90;;;;;;4955320;28;20220;-70
2023/10/21 06:11:05;;;;;;;8.98;7.72;;;8.10;99.90;;;;;;4955076;28;20217;-70
2023/10/21 06:13:32;;;;;;;11.13;8.10;;;8.10;99.90;;;;;;4955040;28;20213;-70
2023/10/21 06:15:59;;;;;;;12.93;7.55;;;8.10;99.90;;;;;;4954775;28;20431;-70
2023/10/21 06:18:27;;;;;;;11.23;5.55;;;8.10;99.90;;;;;;4955098;28;20217;-69
2023/10/21 06:20:54;;;;;;;9.90;7.55;;;8.10;99.90;;;;;;4955360;28;20228;-70
2023/10/21 06:23:21;;;;;;;10.32;5.82;;;8.10;99.90;;;;;;4955410;28;20236;-70
2023/10/21 06:25:48;;;;;;;7.97;6.13;;;8.20;99.90;;;;;;4954983;28;20237;-70
2023/10/21 06:28:15;;;;;;;12.15;7.45;;;8.20;99.90;;;;;;4956088;28;20300;-71
2023/10/21 06:30:42;;;;;;;9.93;6.75;;;8.20;99.90;;;;;;4955752;28;20227;-70
2023/10/21 06:33:10;;;;;;;8.32;6.75;;;8.20;99.90;;;;;;4955582;28;20209;-71
2023/10/21 06:35:39;;;;;;;8.77;5.97;;;8.20;99.90;;;;;;4955911;28;20233;-71
2023/10/21 06:38:06;;;;;;;10.15;7.68;;;8.20;99.90;;;;;;4956518;28;20292;-71
2023/10/21 06:40:33;;;;;;;12.00;7.60;;;8.20;99.90;;;;;;4955799;28;20221;-70
2023/10/21 06:43:00;;;;;;;9.20;7.57;;;8.20;99.90;;;;;;4955598;28;20237;-70
2023/10/21 06:45:27;;;;;;;10.57;7.25;;;8.20;99.90;;;;;;4955420;28;20217;-71
2023/10/21 06:47:54;;;;;;;13.95;7.75;;;8.20;99.90;;;;;;4955280;28;20680;-70
2023/10/21 06:50:21;;;;;;;13.00;8.10;;;8.20;99.90;;;;;;4955260;29;20217;-70
2023/10/21 06:52:49;;;;;;;12.15;8.55;;;8.20;99.90;;;;;;4955212;28;20210;-71
2023/10/21 06:55:17;;;;;;;13.02;8.07;;;8.20;99.90;;;;;;4954723;28;20312;-70
2023/10/21 06:57:44;;;;;;;11.95;7.95;;;8.30;99.90;;;;;;4954881;28;20224;-70
2023/10/21 07:00:12;;;;;;;9.07;7.10;;;8.30;99.90;;;;;;4955262;28;20248;-70
2023/10/21 07:02:39;;;;;;;10.68;7.45;;;8.30;99.90;;;;;;4954885;28;20225;-68
2023/10/21 07:05:09;;;;;;;15.18;8.02;;;8.30;99.90;;;;;;4954640;28;20298;-70
2023/10/21 07:07:37;;;;;;;10.45;7.07;;;8.30;99.90;;;;;;4954610;28;20240;-71
2023/10/21 07:10:06;;;;;;;16.25;8.38;;;8.30;99.90;;;;;;4954764;28;20217;-71
2023/10/21 07:12:34;;;;;;;15.00;9.18;;;8.30;99.90;;;;;;4955041;28;20220;-71
2023/10/21 07:15:01;;;;;;;14.40;9.80;;;8.30;99.90;;;;;;4954866;28;20220;-70
2023/10/21 07:17:31;;;;;;;12.85;7.15;;;8.30;99.90;;;;;;4954279;28;20268;-70
2023/10/21 07:19:58;;;;;;;12.07;8.82;;;8.30;99.90;;;;;;4954604;28;20214;-70
2023/10/21 07:22:25;;;;;;;11.10;7.68;;;8.40;99.90;;;;;;4955583;28;20213;-71
2023/10/21 07:24:55;;;;;;;10.35;7.22;;;8.40;99.90;;;;;;4956869;28;20217;-71
2023/10/21 07:27:23;;;;;;;10.68;6.85;;;8.40;99.90;;;;;;4956915;28;20324;-71
2023/10/21 07:29:50;;;;;;;10.25;7.47;;;8.40;99.90;;;;;;4957396;28;20217;-71
2023/10/21 07:32:17;;;;;;;11.00;6.28;;;8.40;99.90;;;;;;4959511;28;20301;-70
2023/10/21 07:34:44;;;;;;;8.00;6.80;;;8.40;99.90;;;;;;4956488;29;20217;-71
2023/10/21 07:37:10;;;;;;;8.00;6.20;;;8.40;99.90;;;;;;4954741;28;20248;-70
2023/10/21 07:39:37;;;;;;;9.23;6.43;;;8.50;99.90;;;;;;4954803;28;20213;-69
2023/10/21 07:42:05;;;;;;;11.98;6.72;;;8.50;99.90;;;;;;4954212;28;20225;-70
2023/10/21 07:44:33;;;;;;;10.50;7.70;;;8.50;99.90;;;;;;4953810;28;20304;-70
2023/10/21 07:47:01;;;;;;;10.90;7.72;;;8.60;99.90;;;;;;4953682;28;20288;-70
2023/10/21 07:49:28;;;;;;;9.48;6.88;;;8.60;99.90;;;;;;4953997;28;20542;-70
2023/10/21 07:51:54;;;;;;;10.35;6.68;;;8.70;99.90;;;;;;4954368;28;20223;-70
2023/10/21 07:54:21;;;;;;;8.60;6.85;;;8.70;99.90;;;;;;4954430;28;20204;-70
2023/10/21 07:56:48;;;;;;;10.32;7.28;;;8.70;99.90;;;;;;4953924;28;20233;-70
2023/10/21 07:59:14;;;;;;;7.75;5.90;;;8.70;99.90;;;;;;4954112;28;20224;-69
2023/10/21 08:01:42;;;;;;;10.13;7.53;;;8.80;99.90;;;;;;4953882;28;20209;-70
2023/10/21 08:04:09;;;;;;;8.85;7.25;;;8.80;99.90;;;;;;4954295;28;20599;-70
2023/10/21 08:06:37;;;;;;;8.40;6.28;;;8.80;99.90;;;;;;4954000;28;20236;-71
2023/10/21 08:09:04;;;;;;;8.45;5.82;;;8.80;99.90;;;;;;4954231;28;20297;-70
2023/10/21 08:11:31;;;;;;;10.32;6.75;;;8.80;99.90;;;;;;4953834;28;20219;-70
2023/10/21 08:13:59;;;;;;;8.65;6.25;;;8.80;99.90;;;;;;4954114;28;20217;-71
2023/10/21 08:16:26;;;;;;;8.77;7.18;;;8.80;99.90;;;;;;4953567;28;20734;-71
2023/10/21 08:18:54;;;;;;;7.45;6.15;;;8.80;99.90;;;;;;4953833;28;20766;-70
2023/10/21 08:21:21;;;;;;;9.63;6.55;;;8.80;99.90;;;;;;4953708;28;20212;-69
2023/10/21 08:23:48;;;;;;;7.97;6.40;;;8.80;99.90;;;;;;4953786;28;20244;-70
2023/10/21 08:26:15;;;;;;;10.10;7.28;;;8.90;99.90;;;;;;4953593;28;20241;-70
2023/10/21 08:28:42;;;;;;;8.80;7.90;;;8.90;99.90;;;;;;4949372;28;20217;-70
2023/10/21 08:31:09;;;;;;;9.82;6.88;;;8.90;99.90;;;;;;4950499;29;20629;-70
2023/10/21 08:33:36;;;;;;;9.95;7.85;;;8.90;99.90;;;;;;4953484;28;20683;-70
2023/10/21 08:36:05;;;;;;;9.40;6.85;;;8.90;99.90;;;;;;4953621;28;20261;-71
2023/10/21 08:38:31;;;;;;;10.77;7.38;;;8.90;99.90;;;;;;4954051;28;20216;-70
2023/10/21 08:40:58;;;;;;;9.85;6.40;;;9.00;99.90;;;;;;4953606;28;20221;-70
2023/10/21 08:43:25;;;;;;;12.07;7.15;;;9.00;99.90;;;;;;4953425;28;20325;-72
2023/10/21 08:45:52;;;;;;;9.10;7.57;;;9.00;99.90;;;;;;4953547;28;20695;-69
2023/10/21 08:48:19;;;;;;;9.63;7.50;;;9.00;99.90;;;;;;4953628;28;20213;-69
2023/10/21 08:50:49;;;;;;;10.20;7.43;;;9.00;99.90;;;;;;4953428;29;20217;-69
2023/10/21 08:53:17;;;;;;;11.23;7.30;;;9.00;99.90;;;;;;4953213;28;20706;-69
2023/10/21 08:55:45;;;;;;;9.50;7.82;;;9.00;99.90;;;;;;4952978;28;20241;-69
2023/10/21 08:58:12;;;;;;;12.15;8.82;;;9.00;99.90;;;;;;4953306;28;20213;-69
2023/10/21 09:00:41;;;;;;;9.95;6.88;;;9.00;99.90;;;;;;4946265;29;20217;-70
2023/10/21 09:03:08;;;;;;;10.90;6.85;;;9.00;99.90;;;;;;4953759;28;20297;-70
2023/10/21 09:05:36;;;;;;;8.63;7.70;;;9.10;99.90;;;;;;4953347;28;20287;-70
2023/10/21 09:08:03;;;;;;;9.25;6.75;;;9.10;99.90;;;;;;4953271;28;20240;-70
2023/10/21 09:10:32;;;;;;;12.05;7.35;;;9.10;99.90;;;;;;4952808;28;20237;-69
2023/10/21 09:13:14;;;;;;;10.50;6.95;;;9.10;99.90;;;;;;4953541;28;20231;-69
2023/10/21 09:15:41;;;;;;;11.93;7.80;;;9.10;99.90;;;;;;4953082;28;20325;-71
2023/10/21 09:18:10;;;;;;;10.20;7.35;;;9.20;99.90;;;;;;4953731;28;20244;-70
2023/10/21 09:20:38;;;;;;;12.75;8.75;;;9.20;99.90;;;;;;4953914;28;20221;-70
2023/10/21 09:23:05;;;;;;;13.23;7.85;;;9.20;99.90;;;;;;4945758;28;20680;-69
2023/10/21 09:25:35;;;;;;;12.18;7.85;;;9.20;99.90;;;;;;4953685;28;20280;-70
2023/10/21 09:28:01;;;;;;;11.85;7.28;;;9.30;99.90;;;;;;4953219;28;20305;-70
2023/10/21 09:30:30;;;;;;;12.30;7.68;;;9.30;99.90;;;;;;4953476;28;20699;-70
2023/10/21 09:33:02;;;;;;;10.75;8.18;;;9.30;99.90;;;;;;4956736;28;20213;-70
2023/10/21 09:35:30;;;;;;;17.45;10.30;;;9.30;99.90;;;;;;4956365;28;20221;-70
2023/10/21 09:37:57;;;;;;;13.77;8.57;;;9.30;99.90;;;;;;4956499;28;20593;-71
2023/10/21 09:40:25;;;;;;;12.52;8.60;;;9.40;99.90;;;;;;4956349;28;20309;-70
2023/10/21 09:42:53;;;;;;;12.60;8.38;;;9.30;99.90;;;;;;4949055;28;20246;-71
2023/10/21 09:45:21;;;;;;;12.57;7.57;;;9.40;99.90;;;;;;4956214;28;20240;-69
2023/10/21 09:47:51;;;;;;;12.88;8.27;;;9.40;99.90;;;;;;4956283;28;20212;-70
2023/10/21 09:50:17;;;;;;;13.20;8.55;;;9.40;99.90;;;;;;4956134;29;20296;-70
2023/10/21 09:52:49;;;;;;;13.05;7.93;;;9.40;99.90;;;;;;4956352;28;20596;-70
2023/10/21 09:55:17;;;;;;;14.07;8.15;;;9.50;99.90;;;;;;4956081;28;20223;-69
2023/10/21 09:57:48;;;;;;;12.05;8.23;;;9.50;99.90;;;;;;4956117;28;20649;-69
2023/10/21 10:00:19;;;;;;;15.52;9.98;;;9.50;99.90;;;;;;4956037;28;20217;-70
2023/10/21 10:02:47;;;;;;;12.77;8.90;;;9.60;99.90;;;;;;4956209;28;20540;-70
2023/10/21 10:05:15;;;;;;;10.52;7.63;;;9.60;99.90;;;;;;4955838;28;20237;-70
2023/10/21 10:07:44;;;;;;;9.80;8.05;;;9.60;99.90;;;;;;4956055;28;20217;-68
2023/10/21 10:10:13;;;;;;;12.63;7.82;;;9.70;99.90;;;;;;4955621;28;20224;-68
2023/10/21 10:12:45;;;;;;;12.02;7.43;;;9.60;99.90;;;;;;4955863;28;20664;-69
2023/10/21 10:15:33;;;;;;;10.18;7.50;;;9.70;99.90;;;;;;4956246;28;20272;-70
2023/10/21 10:18:02;;;;;;;9.00;7.45;;;9.60;99.90;;;;;;4983622;23;20237;-72
2023/10/21 10:20:30;;;;;;;6.85;6.15;;;9.70;99.90;;;;;;4939489;28;20217;-71
2023/10/21 10:22:59;;;;;;;10.15;7.63;;;9.70;99.90;;;;;;4941113;28;20591;-71
2023/10/21 10:25:27;;;;;;;8.10;6.05;;;9.70;99.90;;;;;;4943640;29;20233;-72
2023/10/21 10:27:58;;;;;;;10.38;6.85;;;9.70;99.90;;;;;;4949661;29;20228;-71
2023/10/21 10:30:30;;;;;;;10.35;5.95;;;9.70;99.90;;;;;;4955175;28;20300;-72
2023/10/21 10:33:06;;;;;;;11.43;5.70;;;9.80;99.90;;;;;;4955058;28;20268;-72
2023/10/21 10:35:37;;;;;;;13.43;7.57;;;9.70;99.90;;;;;;4954900;28;20212;-72
2023/10/21 10:38:17;;;;;;;14.27;8.15;;;9.80;99.90;;;;;;4954696;28;20241;-71
2023/10/21 10:40:45;;;;;;;9.90;7.30;;;9.90;99.90;;;;;;4955040;28;20220;-70
2023/10/21 10:43:12;;;;;;;10.85;7.50;;;9.90;99.90;;;;;;4954281;28;20216;-71
2023/10/21 10:45:39;;;;;;;8.70;7.57;;;10.00;99.90;;;;;;4955104;28;20320;-72
2023/10/21 10:48:08;;;;;;;9.05;7.38;;;10.00;99.90;;;;;;4954809;28;20241;-71
2023/10/21 10:50:36;;;;;;;10.88;7.78;;;10.00;99.90;;;;;;4954708;28;20686;-71
2023/10/21 10:53:15;;;;;;;12.60;9.25;;;10.10;99.90;;;;;;4955286;28;20687;-71
2023/10/21 10:55:46;;;;;;;13.20;7.90;;;10.10;99.90;;;;;;4955105;28;20209;-71
2023/10/21 10:58:13;;;;;;;9.95;7.90;;;10.10;99.90;;;;;;4955080;28;20233;-71
2023/10/21 11:00:40;;;;;;;9.75;7.70;;;10.10;99.90;;;;;;4954664;28;20213;-71
2023/10/21 11:03:09;;;;;;;11.35;8.50;;;10.20;99.90;;;;;;4954641;28;20224;-71
2023/10/21 11:05:37;;;;;;;15.57;9.73;;;10.20;99.90;;;;;;4954741;28;20233;-71
2023/10/21 11:08:07;;;;;;;14.23;7.85;;;10.30;99.90;;;;;;4954654;28;20268;-72
2023/10/21 11:10:34;;;;;;;16.45;8.80;;;10.30;99.90;;;;;;4954535;28;20533;-70
2023/10/21 11:13:03;;;;;;;8.75;7.53;;;10.40;99.90;;;;;;4954350;28;20213;-71
2023/10/21 11:15:30;;;;;;;11.05;7.72;;;10.40;99.90;;;;;;4953957;28;20550;-70
2023/10/21 11:17:56;;;;;;;9.40;7.30;;;10.40;99.90;;;;;;4954152;28;20241;-71
2023/10/21 11:20:26;;;;;;;13.13;7.78;;;10.50;99.90;;;;;;4954489;28;20241;-70
2023/10/21 11:22:54;;;;;;;12.07;9.53;;;10.50;99.90;;;;;;4954193;28;20220;-71
2023/10/21 11:25:21;;;;;;;11.90;9.25;;;10.50;99.90;;;;;;4954209;28;20568;-71
2023/10/21 11:27:48;;;;;;;11.80;9.05;;;10.50;99.90;;;;;;4953990;28;20252;-71
2023/10/21 11:30:15;;;;;;;11.75;7.95;;;10.60;99.90;;;;;;4946447;28;20205;-71
2023/10/21 11:32:42;;;;;;;12.98;8.23;;;10.60;99.90;;;;;;4949623;28;20700;-71
2023/10/21 11:35:10;;;;;;;14.50;8.40;;;10.80;99.90;;;;;;4942669;29;20213;-71
2023/10/21 11:37:39;;;;;;;10.80;7.37;;;10.80;99.90;;;;;;4936047;29;20514;-71
2023/10/21 11:40:09;;;;;;;10.47;7.80;;;10.90;99.90;;;;;;4951099;29;20537;-71
2023/10/21 11:42:37;;;;;;;11.27;8.25;;;11.10;99.90;;;;;;4951299;28;20473;-71
2023/10/21 11:45:07;;;;;;;8.80;6.97;;;11.30;99.90;;;;;;4942305;29;20234;-71
2023/10/21 11:47:35;;;;;;;9.00;7.27;;;11.40;99.90;;;;;;4953550;28;21047;-71
2023/10/21 11:50:03;;;;;;;18.67;12.63;;;11.30;99.90;;;;;;4953745;28;20470;-71
2023/10/21 11:52:30;;;;;;;10.30;7.70;;;11.30;99.90;;;;;;4953986;28;20471;-71
2023/10/21 11:58:31;;;;;;;8.63;7.10;;;11.40;99.90;;;;;;4936208;29;20574;-71
2023/10/21 12:15:06;;;;;;;11.53;9.17;;;12.00;99.90;;;;;;4912746;29;20963;-71
2023/10/21 12:31:53;;;;;;;10.80;8.93;;;12.10;99.90;;;;;;4912730;29;21018;-71
2023/10/21 12:34:35;;;;;;;12.43;8.47;;;12.10;99.90;;;;;;4912677;29;20496;-70
2023/10/21 12:39:48;;;;;;;19.23;12.50;;;12.30;99.90;;;;;;4940530;29;20532;-70
2023/10/21 12:42:26;;;;;;;17.40;13.47;;;12.50;99.90;;;;;;4953102;28;21023;-71
2023/10/21 12:44:57;;;;;;;10.97;8.47;;;12.60;99.90;;;;;;4952827;28;20497;-71
2023/10/21 12:47:25;;;;;;;9.07;6.87;;;12.70;99.90;;;;;;4952934;28;20526;-71
2023/10/21 12:49:55;;;;;;;8.07;6.53;;;12.80;99.90;;;;;;4953173;28;20474;-71
2023/10/21 12:52:22;;;;;;;6.13;5.53;;;12.90;99.90;;;;;;4953222;28;20461;-71
2023/10/21 12:54:48;;;;;;;6.67;6.07;;;12.90;99.90;;;;;;4952964;28;20470;-71
2023/10/21 12:57:15;;;;;;;7.73;6.10;;;12.90;99.90;;;;;;4951732;28;20491;-71
2023/10/21 12:59:42;;;;;;;6.97;6.17;;;12.90;99.90;;;;;;4945988;29;20467;-71
2023/10/21 13:02:11;;;;;;;10.77;9.77;;;12.90;99.90;;;;;;4953154;28;20494;-71
2023/10/21 13:04:40;;;;;;;8.70;7.83;;;12.90;99.90;;;;;;4953090;28;20859;-71
2023/10/21 13:07:08;;;;;;;16.57;14.90;;;13.00;99.90;;;;;;4955566;28;21002;-71
2023/10/21 13:09:37;;;;;;;10.73;9.67;;;13.00;99.90;;;;;;4956674;28;20496;-71
2023/10/21 13:12:09;;;;;;;7.90;7.20;;;13.10;99.90;;;;;;4956537;28;20845;-71
2023/10/21 13:14:36;;;;;;;12.17;10.63;;;13.20;99.90;;;;;;4956718;28;20463;-71
2023/10/21 13:17:07;;;;;;;10.57;9.10;;;13.30;99.90;;;;;;4956293;28;20862;-71
2023/10/21 13:19:36;;;;;;;8.63;7.93;;;13.40;99.90;;;;;;4956488;28;20467;-71
2023/10/21 13:22:05;;;;;;;14.57;13.30;;;13.40;99.90;;;;;;4956487;28;20464;-70
2023/10/21 13:24:33;;;;;;;7.00;6.30;;;13.50;99.90;;;;;;4956166;28;20500;-71
2023/10/21 13:27:00;;;;;;;9.27;8.57;;;13.60;99.90;;;;;;4956185;28;20998;-71
2023/10/21 13:29:27;;;;;;;7.13;6.50;;;13.60;99.90;;;;;;4956384;28;20491;-71
2023/10/21 13:31:53;;;;;;;8.00;7.40;;;13.70;99.90;;;;;;4956337;28;20479;-71
2023/10/21 13:34:20;;;;;;;8.47;7.67;;;13.60;99.90;;;;;;4956029;28;20464;-71
2023/10/21 13:36:49;;;;;;;6.73;6.23;;;13.70;99.90;;;;;;4955696;28;21010;-71
2023/10/21 13:39:18;;;;;;;10.10;9.17;;;13.80;99.90;;;;;;4948093;28;20650;-70
2023/10/21 13:41:44;;;;;;;6.60;6.20;;;13.90;99.90;;;;;;4956150;28;20468;-71
2023/10/21 13:44:12;;;;;;;5.50;5.03;;;14.00;99.90;;;;;;4955812;28;20465;-71
2023/10/21 13:46:38;;;;;;;6.50;5.90;;;14.10;99.90;;;;;;4955611;28;20492;-71
2023/10/21 13:49:09;;;;;;;5.13;4.73;;;14.10;99.90;;;;;;4955977;28;20844;-71
2023/10/21 13:51:36;;;;;;;4.73;4.47;;;14.20;99.90;;;;;;4955722;28;20462;-70
2023/10/21 13:54:04;;;;;;;11.67;6.60;;;14.20;99.90;;;;;;4955919;28;20460;-71
2023/10/21 13:56:31;;;;;;;5.07;4.73;;;14.20;99.90;;;;;;4955454;28;20467;-71
2023/10/21 13:58:59;;;;;;;6.10;5.30;;;14.20;99.90;;;;;;4955773;28;20475;-71
2023/10/21 14:01:26;;;;;;;5.80;5.30;;;14.20;99.90;;;;;;4955476;28;20464;-71
2023/10/21 14:03:52;;;;;;;4.83;4.47;;;14.20;99.90;;;;;;4955680;28;20461;-71
2023/10/21 14:06:20;;;;;;;5.40;5.00;;;14.10;99.90;;;;;;4955104;28;20864;-70
2023/10/21 14:08:48;;;;;;;5.10;4.80;;;14.10;99.90;;;;;;4955643;28;20465;-71
2023/10/21 14:11:17;;;;;;;5.03;4.63;;;14.10;99.90;;;;;;4955299;28;20999;-71
2023/10/21 14:13:46;;;;;;;5.50;5.10;;;14.10;99.90;;;;;;4955670;28;20496;-71
2023/10/21 14:16:13;;;;;;;6.03;5.50;;;14.10;99.90;;;;;;4955140;28;20461;-71
2023/10/21 14:18:42;;;;;;;5.20;4.73;;;14.10;99.90;;;;;;4954232;28;20876;-71
2023/10/21 14:21:10;;;;;;;5.27;4.87;;;14.10;99.90;;;;;;4955386;28;20532;-70
2023/10/21 14:23:37;;;;;;;5.37;5.07;;;14.10;99.90;;;;;;4955373;28;20461;-70
2023/10/21 14:26:04;;;;;;;4.97;4.67;;;14.10;99.90;;;;;;4955105;28;20584;-70
2023/10/21 14:28:32;;;;;;;5.37;4.97;;;14.10;99.90;;;;;;4955126;28;20489;-70
2023/10/21 14:31:00;;;;;;;5.67;5.17;;;14.10;99.90;;;;;;4955246;28;20471;-70
2023/10/21 14:33:28;;;;;;;6.40;5.80;;;14.10;99.90;;;;;;4955381;28;20471;-71
2023/10/21 14:35:57;;;;;;;6.33;5.73;;;14.00;99.90;;;;;;4955194;28;20471;-70
2023/10/21 14:38:26;;;;;;;5.93;5.53;;;14.00;99.90;;;;;;4954756;29;20488;-71
2023/10/21 14:40:53;;;;;;;6.90;6.30;;;14.00;99.90;;;;;;4955002;28;20473;-70
2023/10/21 14:43:20;;;;;;;8.20;6.67;;;14.00;99.90;;;;;;4955169;28;20467;-70
2023/10/21 14:45:49;;;;;;;7.10;6.50;;;14.00;99.90;;;;;;4954863;28;20493;-70
2023/10/21 14:48:18;;;;;;;6.90;6.30;;;14.10;99.90;;;;;;4955023;28;20484;-70
2023/10/21 14:50:47;;;;;;;7.07;6.50;;;14.10;99.90;;;;;;4955038;28;20996;-69
2023/10/21 14:53:14;;;;;;;5.67;5.23;;;14.10;99.90;;;;;;4954866;28;20528;-70
2023/10/21 14:55:43;;;;;;;6.10;5.80;;;14.10;99.90;;;;;;4954834;28;20474;-70
2023/10/21 14:58:11;;;;;;;6.80;6.20;;;14.20;99.90;;;;;;4954700;28;20968;-71
2023/10/21 15:00:38;;;;;;;8.67;7.70;;;14.20;99.90;;;;;;4954643;28;21012;-69
2023/10/21 15:03:07;;;;;;;9.63;8.67;;;14.30;99.90;;;;;;4954985;28;20467;-69
2023/10/21 15:05:34;;;;;;;7.53;6.90;;;14.30;99.90;;;;;;4954504;28;20528;-69
2023/10/21 15:08:01;;;;;;;6.67;6.17;;;14.40;99.90;;;;;;4946610;28;20492;-69
2023/10/21 15:10:28;;;;;;;5.70;5.30;;;14.30;99.90;;;;;;4946376;28;20465;-69
2023/10/21 15:12:54;;;;;;;6.30;5.70;;;14.30;99.90;;;;;;4954278;28;20465;-69
2023/10/21 15:15:22;;;;;;;6.00;5.50;;;14.30;99.90;;;;;;4954153;28;20468;-69
2023/10/21 15:17:50;;;;;;;5.57;5.07;;;14.30;99.90;;;;;;4954312;28;20863;-69
2023/10/21 15:20:19;;;;;;;7.27;6.67;;;14.20;99.90;;;;;;4954379;28;20520;-69
2023/10/21 15:22:47;;;;;;;8.37;7.67;;;14.10;99.90;;;;;;4954431;28;20468;-69
2023/10/21 15:25:17;;;;;;;6.80;6.20;;;14.10;99.90;;;;;;4953871;28;20503;-69
2023/10/21 15:27:45;;;;;;;5.07;4.67;;;14.00;99.90;;;;;;4954044;28;20488;-69
2023/10/21 15:30:14;;;;;;;7.00;6.30;;;14.00;99.90;;;;;;4953887;28;20615;-69
2023/10/21 15:32:40;;;;;;;12.23;10.90;;;13.90;99.90;;;;;;4953948;28;20527;-69
2023/10/21 15:35:08;;;;;;;9.00;6.03;;;13.80;99.90;;;;;;4953998;28;20468;-69
2023/10/21 15:37:38;;;;;;;7.37;6.77;;;13.80;99.90;;;;;;4938350;29;20768;-70
2023/10/21 15:40:06;;;;;;;4.60;4.30;;;13.70;99.90;;;;;;4953620;28;20950;-69
2023/10/21 15:42:33;;;;;;;11.63;5.70;;;13.60;99.90;;;;;;4953676;28;20977;-70
2023/10/21 15:44:59;;;;;;;4.97;4.67;;;13.60;99.90;;;;;;4954036;28;20478;-69
2023/10/21 15:47:26;;;;;;;5.60;5.20;;;13.60;99.90;;;;;;4953906;28;20495;-70
2023/10/21 15:49:53;;;;;;;5.60;5.30;;;13.50;99.90;;;;;;4953993;28;20472;-70
2023/10/21 15:52:20;;;;;;;4.47;4.27;;;13.50;99.90;;;;;;4953570;28;20498;-70
2023/10/21 15:54:48;;;;;;;5.17;4.83;;;13.40;99.90;;;;;;4953789;28;20468;-70
2023/10/21 15:57:15;;;;;;;4.87;4.57;;;13.30;99.90;;;;;;4953444;28;20484;-70
2023/10/21 15:59:42;;;;;;;5.00;4.80;;;13.30;99.90;;;;;;4953976;28;20879;-71
2023/10/21 16:02:10;;;;;;;4.63;4.30;;;13.20;99.90;;;;;;4955936;28;20495;-71
2023/10/21 16:04:37;;;;;;;4.90;4.60;;;13.10;99.90;;;;;;4954621;28;20519;-70
2023/10/21 16:07:04;;;;;;;5.37;5.00;;;13.00;99.90;;;;;;4953076;28;20971;-70
2023/10/21 16:09:32;;;;;;;5.27;4.77;;;12.90;99.90;;;;;;4953551;28;20483;-70
2023/10/21 16:12:00;;;;;;;4.53;4.23;;;12.80;99.90;;;;;;4953684;28;20527;-70
2023/10/21 16:14:27;;;;;;;6.47;4.50;;;12.70;99.90;;;;;;4953586;28;20810;-70
2023/10/21 16:16:55;;;;;;;6.50;5.40;;;12.60;99.90;;;;;;4953359;28;20483;-69
2023/10/21 16:19:22;;;;;;;6.00;5.40;;;12.60;99.90;;;;;;4953643;28;20471;-71
2023/10/21 16:21:53;;;;;;;6.30;5.70;;;12.40;99.90;;;;;;4948055;28;20523;-71
2023/10/21 16:24:21;;;;;;;5.87;5.47;;;12.40;99.90;;;;;;4943609;29;20567;-71
2023/10/21 16:26:47;;;;;;;5.63;5.07;;;12.30;99.90;;;;;;4952726;29;20578;-71
2023/10/21 16:29:15;;;;;;;7.70;5.97;;;12.20;99.90;;;;;;4945119;28;20492;-72
2023/10/21 16:31:42;;;;;;;5.70;5.33;;;12.10;99.90;;;;;;4952867;28;20470;-71
2023/10/21 16:34:09;;;;;;;7.80;6.00;;;12.00;99.90;;;;;;4944957;28;20467;-71
2023/10/21 16:36:36;;;;;;;5.90;5.30;;;12.00;99.90;;;;;;4952945;28;20484;-71
2023/10/21 16:39:03;;;;;;;8.93;7.40;;;11.90;99.90;;;;;;4952949;28;20459;-70
2023/10/21 16:41:30;;;;;;;7.68;6.97;;;11.80;99.90;;;;;;4954961;28;20953;-71
2023/10/21 16:43:56;;;;;;;9.47;7.63;;;11.70;99.90;;;;;;4948997;28;20226;-71
2023/10/21 16:46:25;;;;;;;8.10;7.40;;;11.70;99.90;;;;;;4956170;29;20490;-71
2023/10/21 16:48:52;;;;;;;8.50;7.10;;;11.70;99.90;;;;;;4948491;28;20791;-71
2023/10/21 16:51:18;;;;;;;8.53;7.57;;;11.60;99.90;;;;;;4956377;28;20980;-72
2023/10/21 16:53:45;;;;;;;10.13;9.03;;;11.50;99.90;;;;;;4956829;28;20470;-72
2023/10/21 16:56:12;;;;;;;10.67;7.83;;;11.50;99.90;;;;;;4948364;28;20948;-72
2023/10/21 16:58:38;;;;;;;10.45;9.35;;;11.40;99.90;;;;;;4956359;28;20590;-72
2023/10/21 17:01:05;;;;;;;12.77;10.70;;;11.40;99.90;;;;;;4956546;29;20210;-72
2023/10/21 17:03:35;;;;;;;14.20;9.00;;;11.30;99.90;;;;;;4948469;28;20568;-72
2023/10/21 17:06:02;;;;;;;10.57;8.77;;;11.30;99.90;;;;;;4956425;28;20244;-71
2023/10/21 17:08:33;;;;;;;10.43;8.95;;;11.20;99.90;;;;;;4953652;28;20252;-71
2023/10/21 17:11:00;;;;;;;10.13;8.55;;;11.20;99.90;;;;;;4945132;29;20215;-71
2023/10/21 17:13:27;;;;;;;10.82;9.10;;;11.20;99.90;;;;;;4952869;29;20226;-71
2023/10/21 17:15:54;;;;;;;10.63;8.65;;;11.10;99.90;;;;;;4950692;29;20209;-71
2023/10/21 17:18:21;;;;;;;9.38;8.48;;;11.10;99.90;;;;;;4956167;28;20242;-71
2023/10/21 17:20:50;;;;;;;10.07;9.05;;;11.10;99.90;;;;;;4951226;29;20214;-72
2023/10/21 17:23:17;;;;;;;11.18;9.98;;;11.00;99.90;;;;;;4954406;29;20221;-72